This is the latest recevied weather packets stored in our database for station/object HUGOCO. If no packets are shown the sender has not sent any weather packets the latest 10 day(s).
| Time | Temp. | Humidity | Pressure | Rain* | Wind** | Luminosity | Snow |
|---|---|---|---|---|---|---|---|
| 1777900562 | 13.89° C | 39% | 1005.4 hPa | 0 mm | - | - | - |
| 1777900262 | 13.89° C | 39% | 1005.4 hPa | 0 mm | - | - | - |
| 1777899962 | 14.44° C | 36% | 1005.2 hPa | 0 mm | - | - | - |
| 1777899662 | 15.56° C | 31% | 1005.3 hPa | 0 mm | - | - | - |
| 1777899362 | 15° C | 29% | 1005.3 hPa | 0 mm | - | - | - |
| 1777899062 | 14.44° C | 30% | 1005.2 hPa | 0 mm | - | - | - |
| 1777898762 | 13.33° C | 35% | 1005.2 hPa | 0 mm | - | - | - |
| 1777898462 | 14.44° C | 34% | 1005.2 hPa | 0 mm | - | - | - |
| 1777898162 | 13.89° C | 33% | 1005.3 hPa | 0 mm | - | - | - |
| 1777897862 | 12.78° C | 34% | 1005.3 hPa | 0 mm | - | - | - |
| 1777897562 | 12.78° C | 38% | 1005.4 hPa | 0 mm | - | - | - |
| 1777897262 | 15° C | 30% | 1005.3 hPa | 0 mm | - | - | - |
| 1777896962 | 13.89° C | 31% | 1005.3 hPa | 0 mm | - | - | - |
| 1777896812 | 14.44° C | 32% | 1005.2 hPa | 0 mm | - | - | - |
| 1777896662 | 14.44° C | 32% | 1005.2 hPa | 0 mm | - | - | - |
| 1777896362 | 14.44° C | 29% | 1005.2 hPa | 0 mm | - | - | - |
| 1777896062 | 13.89° C | 31% | 1005.1 hPa | 0 mm | - | - | - |
| 1777895762 | 12.22° C | 36% | 1005.3 hPa | 0 mm | - | - | - |
| 1777895462 | 12.78° C | 37% | 1005.3 hPa | 0 mm | - | - | - |
| 1777895162 | 12.22° C | 35% | 1005.3 hPa | 0 mm | - | - | - |
| 1777894862 | 12.22° C | 38% | 1005.3 hPa | 0 mm | - | - | - |
| 1777894562 | 12.22° C | 36% | 1005.2 hPa | 0 mm | - | - | - |
| 1777894262 | 11.67° C | 37% | 1005.2 hPa | 0 mm | - | - | - |
| 1777893962 | 11.11° C | 40% | 1005.4 hPa | 0 mm | - | - | - |
| 1777893662 | 11.11° C | 40% | 1005.4 hPa | 0 mm | - | - | - |
* Rain latest hour (hover to see other rain measurements)
** Current wind speed in m/s (hover to see current wind gust speed)